sensor_id;sensor_type;location;lat;lon;timestamp;P1;durP1;ratioP1;P2;durP2;ratioP2
53781;SDS011;39692;53.114;7.060;2022-09-03T00:02:38;2.38;;;0.90;;
53781;SDS011;39692;53.114;7.060;2022-09-03T00:05:11;2.58;;;1.00;;
53781;SDS011;39692;53.114;7.060;2022-09-03T00:10:21;4.72;;;1.27;;
53781;SDS011;39692;53.114;7.060;2022-09-03T00:13:11;8.85;;;1.30;;
53781;SDS011;39692;53.114;7.060;2022-09-03T00:15:41;1.65;;;1.10;;
53781;SDS011;39692;53.114;7.060;2022-09-03T00:18:09;4.47;;;1.15;;
53781;SDS011;39692;53.114;7.060;2022-09-03T00:20:41;2.55;;;1.17;;
53781;SDS011;39692;53.114;7.060;2022-09-03T00:23:17;6.82;;;1.20;;
53781;SDS011;39692;53.114;7.060;2022-09-03T00:28:12;3.70;;;1.45;;
53781;SDS011;39692;53.114;7.060;2022-09-03T00:30:40;2.83;;;1.00;;
53781;SDS011;39692;53.114;7.060;2022-09-03T00:33:08;4.25;;;1.10;;
53781;SDS011;39692;53.114;7.060;2022-09-03T00:35:42;2.67;;;1.13;;
53781;SDS011;39692;53.114;7.060;2022-09-03T00:38:38;2.45;;;1.10;;
53781;SDS011;39692;53.114;7.060;2022-09-03T00:51:52;3.30;;;1.10;;
53781;SDS011;39692;53.114;7.060;2022-09-03T01:11:08;4.50;;;1.38;;
53781;SDS011;39692;53.114;7.060;2022-09-03T01:13:53;5.95;;;1.25;;
53781;SDS011;39692;53.114;7.060;2022-09-03T01:16:53;3.42;;;1.00;;
53781;SDS011;39692;53.114;7.060;2022-09-03T01:30:11;3.72;;;1.10;;
53781;SDS011;39692;53.114;7.060;2022-09-03T01:33:02;2.50;;;1.23;;
53781;SDS011;39692;53.114;7.060;2022-09-03T01:44:02;2.28;;;1.50;;
53781;SDS011;39692;53.114;7.060;2022-09-03T01:46:53;3.47;;;1.33;;
53781;SDS011;39692;53.114;7.060;2022-09-03T01:49:32;3.22;;;1.30;;
53781;SDS011;39692;53.114;7.060;2022-09-03T01:52:09;4.15;;;1.45;;
53781;SDS011;39692;53.114;7.060;2022-09-03T01:57:34;4.25;;;1.40;;
53781;SDS011;39692;53.114;7.060;2022-09-03T02:02:41;2.55;;;1.30;;
53781;SDS011;39692;53.114;7.060;2022-09-03T02:08:05;2.58;;;1.55;;
53781;SDS011;39692;53.114;7.060;2022-09-03T02:13:12;4.20;;;1.55;;
53781;SDS011;39692;53.114;7.060;2022-09-03T02:15:44;3.88;;;1.70;;
53781;SDS011;39692;53.114;7.060;2022-09-03T02:18:19;3.78;;;1.88;;
53781;SDS011;39692;53.114;7.060;2022-09-03T02:20:50;3.30;;;1.70;;
53781;SDS011;39692;53.114;7.060;2022-09-03T02:23:18;2.92;;;1.60;;
53781;SDS011;39692;53.114;7.060;2022-09-03T02:25:44;3.50;;;1.75;;
53781;SDS011;39692;53.114;7.060;2022-09-03T02:28:14;3.05;;;1.73;;
53781;SDS011;39692;53.114;7.060;2022-09-03T02:30:40;4.65;;;1.63;;
53781;SDS011;39692;53.114;7.060;2022-09-03T02:33:06;3.95;;;1.80;;
53781;SDS011;39692;53.114;7.060;2022-09-03T02:35:33;2.90;;;1.60;;
53781;SDS011;39692;53.114;7.060;2022-09-03T02:38:09;5.53;;;1.70;;
53781;SDS011;39692;53.114;7.060;2022-09-03T02:40:41;5.28;;;1.67;;
53781;SDS011;39692;53.114;7.060;2022-09-03T02:43:07;3.30;;;1.88;;
53781;SDS011;39692;53.114;7.060;2022-09-03T02:45:40;4.35;;;1.63;;
53781;SDS011;39692;53.114;7.060;2022-09-03T02:48:11;3.28;;;1.80;;
53781;SDS011;39692;53.114;7.060;2022-09-03T02:50:41;3.05;;;1.60;;
53781;SDS011;39692;53.114;7.060;2022-09-03T02:53:07;5.63;;;2.00;;
53781;SDS011;39692;53.114;7.060;2022-09-03T02:55:33;3.40;;;1.73;;
53781;SDS011;39692;53.114;7.060;2022-09-03T02:57:59;3.75;;;2.10;;
53781;SDS011;39692;53.114;7.060;2022-09-03T03:00:25;3.67;;;1.90;;
53781;SDS011;39692;53.114;7.060;2022-09-03T03:02:54;3.30;;;1.90;;
53781;SDS011;39692;53.114;7.060;2022-09-03T03:05:29;4.07;;;2.13;;
53781;SDS011;39692;53.114;7.060;2022-09-03T03:08:17;3.20;;;2.03;;
53781;SDS011;39692;53.114;7.060;2022-09-03T03:10:45;3.35;;;1.77;;
53781;SDS011;39692;53.114;7.060;2022-09-03T03:13:12;3.38;;;1.75;;
53781;SDS011;39692;53.114;7.060;2022-09-03T03:15:38;3.55;;;2.15;;
53781;SDS011;39692;53.114;7.060;2022-09-03T03:18:04;5.15;;;2.08;;
53781;SDS011;39692;53.114;7.060;2022-09-03T03:20:31;6.40;;;2.40;;
53781;SDS011;39692;53.114;7.060;2022-09-03T03:23:00;2.47;;;1.92;;
53781;SDS011;39692;53.114;7.060;2022-09-03T03:25:26;4.65;;;2.10;;
53781;SDS011;39692;53.114;7.060;2022-09-03T03:27:53;4.60;;;1.95;;
53781;SDS011;39692;53.114;7.060;2022-09-03T03:30:21;3.33;;;2.30;;
53781;SDS011;39692;53.114;7.060;2022-09-03T03:32:47;2.92;;;2.00;;
53781;SDS011;39692;53.114;7.060;2022-09-03T03:35:13;3.28;;;1.80;;
53781;SDS011;39692;53.114;7.060;2022-09-03T03:37:38;4.28;;;1.85;;
53781;SDS011;39692;53.114;7.060;2022-09-03T03:40:04;4.35;;;2.20;;
53781;SDS011;39692;53.114;7.060;2022-09-03T03:42:34;3.25;;;1.92;;
53781;SDS011;39692;53.114;7.060;2022-09-03T03:45:00;4.05;;;2.28;;
53781;SDS011;39692;53.114;7.060;2022-09-03T03:47:29;4.40;;;2.13;;
53781;SDS011;39692;53.114;7.060;2022-09-03T03:49:56;4.45;;;2.53;;
53781;SDS011;39692;53.114;7.060;2022-09-03T03:52:22;4.10;;;2.15;;
53781;SDS011;39692;53.114;7.060;2022-09-03T03:54:48;3.35;;;2.10;;
53781;SDS011;39692;53.114;7.060;2022-09-03T03:57:15;4.13;;;2.13;;
53781;SDS011;39692;53.114;7.060;2022-09-03T03:59:41;2.88;;;2.05;;
53781;SDS011;39692;53.114;7.060;2022-09-03T04:02:06;3.83;;;2.15;;
53781;SDS011;39692;53.114;7.060;2022-09-03T04:04:32;3.25;;;2.03;;
53781;SDS011;39692;53.114;7.060;2022-09-03T04:06:58;5.25;;;2.50;;
53781;SDS011;39692;53.114;7.060;2022-09-03T04:09:23;3.75;;;2.25;;
53781;SDS011;39692;53.114;7.060;2022-09-03T04:11:49;3.50;;;2.42;;
53781;SDS011;39692;53.114;7.060;2022-09-03T04:14:15;3.78;;;2.20;;
53781;SDS011;39692;53.114;7.060;2022-09-03T04:16:44;5.68;;;2.35;;
53781;SDS011;39692;53.114;7.060;2022-09-03T04:19:11;3.15;;;2.13;;
53781;SDS011;39692;53.114;7.060;2022-09-03T04:21:37;5.18;;;2.42;;
53781;SDS011;39692;53.114;7.060;2022-09-03T04:24:03;3.88;;;2.50;;
53781;SDS011;39692;53.114;7.060;2022-09-03T04:26:30;4.07;;;2.15;;
53781;SDS011;39692;53.114;7.060;2022-09-03T04:29:01;6.13;;;2.40;;
53781;SDS011;39692;53.114;7.060;2022-09-03T04:31:29;5.72;;;2.30;;
53781;SDS011;39692;53.114;7.060;2022-09-03T04:33:55;3.28;;;2.42;;
53781;SDS011;39692;53.114;7.060;2022-09-03T04:36:22;4.53;;;2.50;;
53781;SDS011;39692;53.114;7.060;2022-09-03T04:38:50;3.97;;;2.10;;
53781;SDS011;39692;53.114;7.060;2022-09-03T04:41:22;4.22;;;2.30;;
53781;SDS011;39692;53.114;7.060;2022-09-03T04:43:50;3.17;;;2.47;;
53781;SDS011;39692;53.114;7.060;2022-09-03T04:46:17;4.45;;;2.25;;
53781;SDS011;39692;53.114;7.060;2022-09-03T04:48:46;4.13;;;2.30;;
53781;SDS011;39692;53.114;7.060;2022-09-03T04:51:15;4.07;;;2.05;;
53781;SDS011;39692;53.114;7.060;2022-09-03T04:53:45;3.72;;;2.45;;
53781;SDS011;39692;53.114;7.060;2022-09-03T04:56:15;4.88;;;2.15;;
53781;SDS011;39692;53.114;7.060;2022-09-03T04:58:43;3.95;;;2.30;;
53781;SDS011;39692;53.114;7.060;2022-09-03T05:01:09;3.10;;;2.38;;
53781;SDS011;39692;53.114;7.060;2022-09-03T05:03:36;4.22;;;2.22;;
53781;SDS011;39692;53.114;7.060;2022-09-03T05:06:02;4.15;;;2.40;;
53781;SDS011;39692;53.114;7.060;2022-09-03T05:08:29;6.75;;;2.45;;
53781;SDS011;39692;53.114;7.060;2022-09-03T05:10:59;4.07;;;2.70;;
53781;SDS011;39692;53.114;7.060;2022-09-03T05:13:25;3.33;;;2.17;;
53781;SDS011;39692;53.114;7.060;2022-09-03T05:15:52;3.20;;;2.50;;
53781;SDS011;39692;53.114;7.060;2022-09-03T05:18:28;3.38;;;2.60;;
53781;SDS011;39692;53.114;7.060;2022-09-03T05:21:01;4.32;;;2.67;;
53781;SDS011;39692;53.114;7.060;2022-09-03T05:25:58;2.90;;;2.00;;
53781;SDS011;39692;53.114;7.060;2022-09-03T05:28:33;3.47;;;2.10;;
53781;SDS011;39692;53.114;7.060;2022-09-03T05:31:21;3.83;;;2.63;;
53781;SDS011;39692;53.114;7.060;2022-09-03T05:33:48;4.47;;;2.72;;
53781;SDS011;39692;53.114;7.060;2022-09-03T05:36:19;3.28;;;2.38;;
53781;SDS011;39692;53.114;7.060;2022-09-03T05:38:47;3.75;;;2.60;;
53781;SDS011;39692;53.114;7.060;2022-09-03T05:41:14;5.18;;;2.50;;
53781;SDS011;39692;53.114;7.060;2022-09-03T05:43:41;3.45;;;2.40;;
53781;SDS011;39692;53.114;7.060;2022-09-03T05:46:11;5.90;;;2.40;;
53781;SDS011;39692;53.114;7.060;2022-09-03T05:48:39;4.88;;;2.13;;
53781;SDS011;39692;53.114;7.060;2022-09-03T05:51:11;5.05;;;2.63;;
53781;SDS011;39692;53.114;7.060;2022-09-03T05:53:40;3.65;;;2.17;;
53781;SDS011;39692;53.114;7.060;2022-09-03T05:56:08;4.50;;;2.50;;
53781;SDS011;39692;53.114;7.060;2022-09-03T05:58:37;3.40;;;2.35;;
53781;SDS011;39692;53.114;7.060;2022-09-03T06:01:09;4.10;;;2.55;;
53781;SDS011;39692;53.114;7.060;2022-09-03T06:03:35;8.88;;;2.13;;
53781;SDS011;39692;53.114;7.060;2022-09-03T06:06:01;3.22;;;2.08;;
53781;SDS011;39692;53.114;7.060;2022-09-03T06:08:28;3.38;;;2.30;;
53781;SDS011;39692;53.114;7.060;2022-09-03T06:10:58;5.18;;;2.35;;
53781;SDS011;39692;53.114;7.060;2022-09-03T06:13:25;4.57;;;2.05;;
53781;SDS011;39692;53.114;7.060;2022-09-03T06:15:55;5.07;;;2.17;;
53781;SDS011;39692;53.114;7.060;2022-09-03T06:18:22;3.85;;;2.22;;
53781;SDS011;39692;53.114;7.060;2022-09-03T06:20:55;5.15;;;2.70;;
53781;SDS011;39692;53.114;7.060;2022-09-03T06:23:22;6.75;;;2.38;;
53781;SDS011;39692;53.114;7.060;2022-09-03T06:25:58;4.07;;;2.40;;
53781;SDS011;39692;53.114;7.060;2022-09-03T06:28:27;4.80;;;2.20;;
53781;SDS011;39692;53.114;7.060;2022-09-03T06:30:53;5.10;;;2.20;;
53781;SDS011;39692;53.114;7.060;2022-09-03T06:33:23;5.07;;;2.20;;
53781;SDS011;39692;53.114;7.060;2022-09-03T06:35:53;3.67;;;2.30;;
53781;SDS011;39692;53.114;7.060;2022-09-03T06:38:22;4.45;;;1.95;;
53781;SDS011;39692;53.114;7.060;2022-09-03T06:40:55;9.07;;;2.65;;
53781;SDS011;39692;53.114;7.060;2022-09-03T06:43:22;3.55;;;2.00;;
53781;SDS011;39692;53.114;7.060;2022-09-03T06:45:52;4.43;;;2.13;;
53781;SDS011;39692;53.114;7.060;2022-09-03T06:48:19;3.63;;;2.10;;
53781;SDS011;39692;53.114;7.060;2022-09-03T06:50:52;3.38;;;2.00;;
53781;SDS011;39692;53.114;7.060;2022-09-03T06:53:24;4.18;;;2.03;;
53781;SDS011;39692;53.114;7.060;2022-09-03T06:55:56;4.80;;;2.20;;
53781;SDS011;39692;53.114;7.060;2022-09-03T06:58:24;3.45;;;1.95;;
53781;SDS011;39692;53.114;7.060;2022-09-03T07:00:59;4.43;;;2.10;;
53781;SDS011;39692;53.114;7.060;2022-09-03T07:03:26;3.63;;;1.80;;
53781;SDS011;39692;53.114;7.060;2022-09-03T07:05:52;3.83;;;1.60;;
53781;SDS011;39692;53.114;7.060;2022-09-03T07:08:18;4.57;;;2.00;;
53781;SDS011;39692;53.114;7.060;2022-09-03T07:10:44;2.95;;;1.92;;
53781;SDS011;39692;53.114;7.060;2022-09-03T07:13:11;4.50;;;2.10;;
53781;SDS011;39692;53.114;7.060;2022-09-03T07:15:37;5.25;;;2.15;;
53781;SDS011;39692;53.114;7.060;2022-09-03T07:18:04;3.13;;;1.60;;
53781;SDS011;39692;53.114;7.060;2022-09-03T07:20:30;3.88;;;1.90;;
53781;SDS011;39692;53.114;7.060;2022-09-03T07:22:56;3.97;;;1.90;;
53781;SDS011;39692;53.114;7.060;2022-09-03T07:25:23;5.85;;;1.77;;
53781;SDS011;39692;53.114;7.060;2022-09-03T07:27:50;4.28;;;1.80;;
53781;SDS011;39692;53.114;7.060;2022-09-03T07:30:16;3.30;;;1.67;;
53781;SDS011;39692;53.114;7.060;2022-09-03T07:32:44;5.53;;;1.70;;
53781;SDS011;39692;53.114;7.060;2022-09-03T07:35:10;4.63;;;1.92;;
53781;SDS011;39692;53.114;7.060;2022-09-03T07:37:40;3.65;;;1.70;;
53781;SDS011;39692;53.114;7.060;2022-09-03T07:40:07;4.00;;;1.73;;
53781;SDS011;39692;53.114;7.060;2022-09-03T07:42:34;2.40;;;1.58;;
53781;SDS011;39692;53.114;7.060;2022-09-03T07:45:03;4.45;;;1.48;;
53781;SDS011;39692;53.114;7.060;2022-09-03T07:47:35;4.53;;;1.75;;
53781;SDS011;39692;53.114;7.060;2022-09-03T07:50:02;4.63;;;1.85;;
53781;SDS011;39692;53.114;7.060;2022-09-03T07:52:28;2.67;;;1.60;;
53781;SDS011;39692;53.114;7.060;2022-09-03T07:54:54;3.03;;;1.50;;
53781;SDS011;39692;53.114;7.060;2022-09-03T07:57:20;3.72;;;1.73;;
53781;SDS011;39692;53.114;7.060;2022-09-03T07:59:45;3.47;;;1.60;;
53781;SDS011;39692;53.114;7.060;2022-09-03T08:02:11;2.80;;;1.52;;
53781;SDS011;39692;53.114;7.060;2022-09-03T08:04:37;5.43;;;1.65;;
53781;SDS011;39692;53.114;7.060;2022-09-03T08:07:05;3.55;;;1.67;;
53781;SDS011;39692;53.114;7.060;2022-09-03T08:09:30;3.58;;;1.73;;
53781;SDS011;39692;53.114;7.060;2022-09-03T08:11:57;2.95;;;1.52;;
53781;SDS011;39692;53.114;7.060;2022-09-03T08:14:22;4.35;;;1.42;;
53781;SDS011;39692;53.114;7.060;2022-09-03T08:16:48;3.60;;;1.60;;
53781;SDS011;39692;53.114;7.060;2022-09-03T08:19:14;2.20;;;1.40;;
53781;SDS011;39692;53.114;7.060;2022-09-03T08:21:42;3.33;;;1.60;;
53781;SDS011;39692;53.114;7.060;2022-09-03T08:24:09;5.15;;;1.50;;
53781;SDS011;39692;53.114;7.060;2022-09-03T08:26:36;2.67;;;1.40;;
53781;SDS011;39692;53.114;7.060;2022-09-03T08:29:04;2.97;;;1.30;;
53781;SDS011;39692;53.114;7.060;2022-09-03T08:31:30;4.03;;;1.33;;
53781;SDS011;39692;53.114;7.060;2022-09-03T08:33:57;3.30;;;1.50;;
53781;SDS011;39692;53.114;7.060;2022-09-03T08:36:30;2.45;;;1.40;;
53781;SDS011;39692;53.114;7.060;2022-09-03T08:38:58;2.97;;;1.60;;
53781;SDS011;39692;53.114;7.060;2022-09-03T08:41:38;3.13;;;1.55;;
53781;SDS011;39692;53.114;7.060;2022-09-03T08:44:27;3.80;;;1.33;;
53781;SDS011;39692;53.114;7.060;2022-09-03T08:49:26;2.50;;;1.02;;
53781;SDS011;39692;53.114;7.060;2022-09-03T08:52:00;3.50;;;1.25;;
53781;SDS011;39692;53.114;7.060;2022-09-03T08:54:28;4.47;;;1.45;;
53781;SDS011;39692;53.114;7.060;2022-09-03T08:56:56;3.42;;;1.42;;
53781;SDS011;39692;53.114;7.060;2022-09-03T08:59:25;2.72;;;1.40;;
53781;SDS011;39692;53.114;7.060;2022-09-03T09:01:56;2.63;;;1.20;;
53781;SDS011;39692;53.114;7.060;2022-09-03T09:04:46;3.72;;;1.15;;
53781;SDS011;39692;53.114;7.060;2022-09-03T09:07:20;5.25;;;1.30;;
53781;SDS011;39692;53.114;7.060;2022-09-03T09:12:41;2.65;;;1.05;;
53781;SDS011;39692;53.114;7.060;2022-09-03T09:18:38;4.10;;;1.25;;
53781;SDS011;39692;53.114;7.060;2022-09-03T09:21:29;2.40;;;1.10;;
53781;SDS011;39692;53.114;7.060;2022-09-03T09:24:03;3.75;;;1.00;;
53781;SDS011;39692;53.114;7.060;2022-09-03T09:26:35;4.30;;;1.52;;
53781;SDS011;39692;53.114;7.060;2022-09-03T09:29:05;3.13;;;1.20;;
53781;SDS011;39692;53.114;7.060;2022-09-03T09:31:34;3.28;;;1.30;;
53781;SDS011;39692;53.114;7.060;2022-09-03T09:34:05;1.77;;;1.15;;
53781;SDS011;39692;53.114;7.060;2022-09-03T09:36:36;3.50;;;1.40;;
53781;SDS011;39692;53.114;7.060;2022-09-03T09:39:09;5.68;;;1.27;;
53781;SDS011;39692;53.114;7.060;2022-09-03T09:41:35;2.40;;;1.00;;
53781;SDS011;39692;53.114;7.060;2022-09-03T09:44:01;3.83;;;1.10;;
53781;SDS011;39692;53.114;7.060;2022-09-03T09:46:38;4.20;;;1.40;;
53781;SDS011;39692;53.114;7.060;2022-09-03T09:52:03;3.67;;;1.23;;
53781;SDS011;39692;53.114;7.060;2022-09-03T09:54:33;3.15;;;1.15;;
53781;SDS011;39692;53.114;7.060;2022-09-03T09:57:00;2.25;;;1.20;;
53781;SDS011;39692;53.114;7.060;2022-09-03T09:59:30;2.45;;;1.25;;
53781;SDS011;39692;53.114;7.060;2022-09-03T10:02:12;3.47;;;1.02;;
53781;SDS011;39692;53.114;7.060;2022-09-03T10:04:40;2.90;;;1.17;;
53781;SDS011;39692;53.114;7.060;2022-09-03T10:10:05;4.05;;;1.30;;
53781;SDS011;39692;53.114;7.060;2022-09-03T10:12:47;3.13;;;1.20;;
53781;SDS011;39692;53.114;7.060;2022-09-03T10:15:35;3.28;;;1.17;;
53781;SDS011;39692;53.114;7.060;2022-09-03T10:18:10;3.83;;;1.20;;
53781;SDS011;39692;53.114;7.060;2022-09-03T10:21:01;10.05;;;1.33;;
53781;SDS011;39692;53.114;7.060;2022-09-03T10:26:39;3.47;;;1.25;;
53781;SDS011;39692;53.114;7.060;2022-09-03T10:29:10;2.08;;;1.00;;
53781;SDS011;39692;53.114;7.060;2022-09-03T10:34:21;2.88;;;1.15;;
53781;SDS011;39692;53.114;7.060;2022-09-03T10:39:55;3.92;;;1.20;;
53781;SDS011;39692;53.114;7.060;2022-09-03T10:42:43;3.47;;;1.00;;
53781;SDS011;39692;53.114;7.060;2022-09-03T10:48:15;2.83;;;0.90;;
53781;SDS011;39692;53.114;7.060;2022-09-03T10:51:04;4.13;;;1.27;;
53781;SDS011;39692;53.114;7.060;2022-09-03T11:05:05;4.68;;;1.02;;
53781;SDS011;39692;53.114;7.060;2022-09-03T11:07:44;5.53;;;1.25;;
53781;SDS011;39692;53.114;7.060;2022-09-03T11:10:26;4.03;;;1.30;;
53781;SDS011;39692;53.114;7.060;2022-09-03T11:15:31;3.78;;;1.25;;
53781;SDS011;39692;53.114;7.060;2022-09-03T11:18:19;4.00;;;1.30;;
53781;SDS011;39692;53.114;7.060;2022-09-03T11:20:46;2.30;;;1.02;;
53781;SDS011;39692;53.114;7.060;2022-09-03T11:23:14;4.68;;;1.40;;
53781;SDS011;39692;53.114;7.060;2022-09-03T11:25:46;1.58;;;0.73;;
53781;SDS011;39692;53.114;7.060;2022-09-03T11:30:48;2.28;;;0.75;;
53781;SDS011;39692;53.114;7.060;2022-09-03T11:33:27;4.35;;;1.00;;
53781;SDS011;39692;53.114;7.060;2022-09-03T11:35:56;4.43;;;1.05;;
53781;SDS011;39692;53.114;7.060;2022-09-03T11:38:27;5.72;;;0.95;;
53781;SDS011;39692;53.114;7.060;2022-09-03T11:48:41;1.77;;;0.80;;
53781;SDS011;39692;53.114;7.060;2022-09-03T11:51:28;5.75;;;0.88;;
53781;SDS011;39692;53.114;7.060;2022-09-03T11:54:02;2.70;;;1.00;;
53781;SDS011;39692;53.114;7.060;2022-09-03T11:56:29;1.80;;;1.00;;
53781;SDS011;39692;53.114;7.060;2022-09-03T12:01:38;3.67;;;0.98;;
53781;SDS011;39692;53.114;7.060;2022-09-03T12:04:17;4.10;;;1.00;;
53781;SDS011;39692;53.114;7.060;2022-09-03T12:15:03;3.22;;;1.08;;
53781;SDS011;39692;53.114;7.060;2022-09-03T12:18:02;2.95;;;0.85;;
53781;SDS011;39692;53.114;7.060;2022-09-03T12:20:47;3.50;;;1.02;;
53781;SDS011;39692;53.114;7.060;2022-09-03T12:26:01;3.72;;;1.13;;
53781;SDS011;39692;53.114;7.060;2022-09-03T12:28:36;3.10;;;0.98;;
53781;SDS011;39692;53.114;7.060;2022-09-03T12:31:13;3.63;;;1.05;;
53781;SDS011;39692;53.114;7.060;2022-09-03T12:36:50;2.85;;;0.93;;
53781;SDS011;39692;53.114;7.060;2022-09-03T12:39:24;3.20;;;1.00;;
53781;SDS011;39692;53.114;7.060;2022-09-03T12:49:40;3.33;;;1.00;;
53781;SDS011;39692;53.114;7.060;2022-09-03T12:54:38;3.75;;;0.95;;
53781;SDS011;39692;53.114;7.060;2022-09-03T12:57:10;3.65;;;1.02;;
53781;SDS011;39692;53.114;7.060;2022-09-03T12:59:41;5.75;;;1.10;;
53781;SDS011;39692;53.114;7.060;2022-09-03T13:02:17;3.15;;;0.98;;
53781;SDS011;39692;53.114;7.060;2022-09-03T13:04:47;3.08;;;1.00;;
53781;SDS011;39692;53.114;7.060;2022-09-03T13:07:22;2.90;;;0.93;;
53781;SDS011;39692;53.114;7.060;2022-09-03T13:09:56;2.05;;;0.90;;
53781;SDS011;39692;53.114;7.060;2022-09-03T13:12:42;4.32;;;0.98;;
53781;SDS011;39692;53.114;7.060;2022-09-03T13:15:16;3.37;;;1.30;;
53781;SDS011;39692;53.114;7.060;2022-09-03T13:26:04;2.38;;;1.17;;
53781;SDS011;39692;53.114;7.060;2022-09-03T13:31:33;6.97;;;1.13;;
53781;SDS011;39692;53.114;7.060;2022-09-03T13:34:06;5.30;;;1.33;;
53781;SDS011;39692;53.114;7.060;2022-09-03T13:39:49;2.13;;;1.13;;
53781;SDS011;39692;53.114;7.060;2022-09-03T13:42:25;4.20;;;1.25;;
53781;SDS011;39692;53.114;7.060;2022-09-03T13:47:41;5.13;;;1.20;;
53781;SDS011;39692;53.114;7.060;2022-09-03T13:50:30;2.28;;;1.20;;
53781;SDS011;39692;53.114;7.060;2022-09-03T13:55:57;2.38;;;1.08;;
53781;SDS011;39692;53.114;7.060;2022-09-03T13:58:37;7.13;;;1.30;;
53781;SDS011;39692;53.114;7.060;2022-09-03T14:01:14;4.70;;;1.35;;
53781;SDS011;39692;53.114;7.060;2022-09-03T14:03:59;3.90;;;1.30;;
53781;SDS011;39692;53.114;7.060;2022-09-03T14:12:16;4.07;;;1.20;;
53781;SDS011;39692;53.114;7.060;2022-09-03T14:20:07;4.40;;;1.20;;
53781;SDS011;39692;53.114;7.060;2022-09-03T14:22:56;3.38;;;1.40;;
53781;SDS011;39692;53.114;7.060;2022-09-03T14:25:34;6.68;;;1.40;;
53781;SDS011;39692;53.114;7.060;2022-09-03T14:31:11;4.70;;;1.38;;
53781;SDS011;39692;53.114;7.060;2022-09-03T14:34:10;3.05;;;1.10;;
53781;SDS011;39692;53.114;7.060;2022-09-03T14:48:35;3.28;;;1.30;;
53781;SDS011;39692;53.114;7.060;2022-09-03T15:04:37;3.85;;;1.40;;
53781;SDS011;39692;53.114;7.060;2022-09-03T15:07:27;4.22;;;1.40;;
53781;SDS011;39692;53.114;7.060;2022-09-03T15:10:02;3.13;;;1.50;;
53781;SDS011;39692;53.114;7.060;2022-09-03T15:12:44;4.65;;;1.40;;
53781;SDS011;39692;53.114;7.060;2022-09-03T15:15:18;3.63;;;1.45;;
53781;SDS011;39692;53.114;7.060;2022-09-03T15:17:50;2.67;;;1.42;;
53781;SDS011;39692;53.114;7.060;2022-09-03T15:28:42;4.93;;;1.45;;
53781;SDS011;39692;53.114;7.060;2022-09-03T15:31:25;2.50;;;1.40;;
53781;SDS011;39692;53.114;7.060;2022-09-03T15:37:21;3.30;;;1.40;;
53781;SDS011;39692;53.114;7.060;2022-09-03T15:39:56;3.72;;;1.67;;
53781;SDS011;39692;53.114;7.060;2022-09-03T15:42:40;3.08;;;1.60;;
53781;SDS011;39692;53.114;7.060;2022-09-03T15:45:31;3.00;;;1.48;;
53781;SDS011;39692;53.114;7.060;2022-09-03T15:48:02;3.47;;;1.60;;
53781;SDS011;39692;53.114;7.060;2022-09-03T15:50:52;4.32;;;1.30;;
53781;SDS011;39692;53.114;7.060;2022-09-03T15:53:43;3.47;;;1.48;;
53781;SDS011;39692;53.114;7.060;2022-09-03T16:02:03;3.30;;;1.35;;
53781;SDS011;39692;53.114;7.060;2022-09-03T16:10:19;2.97;;;1.55;;
53781;SDS011;39692;53.114;7.060;2022-09-03T16:13:00;7.13;;;1.45;;
53781;SDS011;39692;53.114;7.060;2022-09-03T16:15:35;6.27;;;1.40;;
53781;SDS011;39692;53.114;7.060;2022-09-03T16:27:08;5.60;;;1.38;;
53781;SDS011;39692;53.114;7.060;2022-09-03T16:30:06;2.67;;;1.20;;
53781;SDS011;39692;53.114;7.060;2022-09-03T16:35:19;4.38;;;1.52;;
53781;SDS011;39692;53.114;7.060;2022-09-03T16:38:08;5.18;;;1.45;;
53781;SDS011;39692;53.114;7.060;2022-09-03T16:43:31;3.38;;;1.38;;
53781;SDS011;39692;53.114;7.060;2022-09-03T16:48:47;4.07;;;1.60;;
53781;SDS011;39692;53.114;7.060;2022-09-03T17:08:11;5.57;;;1.50;;
53781;SDS011;39692;53.114;7.060;2022-09-03T17:10:52;4.10;;;1.40;;
53781;SDS011;39692;53.114;7.060;2022-09-03T17:19:33;5.25;;;1.50;;
53781;SDS011;39692;53.114;7.060;2022-09-03T17:22:04;3.13;;;1.40;;
53781;SDS011;39692;53.114;7.060;2022-09-03T17:33:25;3.83;;;1.63;;
53781;SDS011;39692;53.114;7.060;2022-09-03T17:36:14;4.72;;;1.40;;
53781;SDS011;39692;53.114;7.060;2022-09-03T17:49:44;4.65;;;1.40;;
53781;SDS011;39692;53.114;7.060;2022-09-03T17:52:34;3.00;;;1.42;;
53781;SDS011;39692;53.114;7.060;2022-09-03T17:55:11;2.30;;;1.20;;
53781;SDS011;39692;53.114;7.060;2022-09-03T17:57:43;2.95;;;1.50;;
53781;SDS011;39692;53.114;7.060;2022-09-03T18:00:32;3.50;;;1.17;;
53781;SDS011;39692;53.114;7.060;2022-09-03T18:05:46;3.47;;;1.05;;
53781;SDS011;39692;53.114;7.060;2022-09-03T18:11:29;4.20;;;1.45;;
53781;SDS011;39692;53.114;7.060;2022-09-03T18:16:30;7.05;;;1.42;;
53781;SDS011;39692;53.114;7.060;2022-09-03T18:19:02;2.67;;;1.50;;
53781;SDS011;39692;53.114;7.060;2022-09-03T18:21:42;4.20;;;1.63;;
53781;SDS011;39692;53.114;7.060;2022-09-03T18:24:40;5.43;;;1.40;;
53781;SDS011;39692;53.114;7.060;2022-09-03T18:27:40;4.15;;;1.58;;
53781;SDS011;39692;53.114;7.060;2022-09-03T18:30:31;5.05;;;1.60;;
53781;SDS011;39692;53.114;7.060;2022-09-03T18:33:18;4.95;;;1.60;;
53781;SDS011;39692;53.114;7.060;2022-09-03T18:36:07;3.13;;;1.40;;
53781;SDS011;39692;53.114;7.060;2022-09-03T18:38:51;3.10;;;1.60;;
53781;SDS011;39692;53.114;7.060;2022-09-03T18:56:49;6.53;;;2.10;;
53781;SDS011;39692;53.114;7.060;2022-09-03T19:08:24;3.55;;;1.73;;
53781;SDS011;39692;53.114;7.060;2022-09-03T19:14:06;7.47;;;2.00;;
53781;SDS011;39692;53.114;7.060;2022-09-03T19:17:59;3.97;;;1.98;;
53781;SDS011;39692;53.114;7.060;2022-09-03T19:20:34;8.77;;;2.10;;
53781;SDS011;39692;53.114;7.060;2022-09-03T19:23:19;5.32;;;1.67;;
53781;SDS011;39692;53.114;7.060;2022-09-03T19:26:10;3.00;;;1.63;;
53781;SDS011;39692;53.114;7.060;2022-09-03T19:29:07;5.25;;;1.85;;
53781;SDS011;39692;53.114;7.060;2022-09-03T19:32:02;5.43;;;1.85;;
53781;SDS011;39692;53.114;7.060;2022-09-03T19:35:16;2.83;;;1.73;;
53781;SDS011;39692;53.114;7.060;2022-09-03T19:41:00;6.28;;;2.17;;
53781;SDS011;39692;53.114;7.060;2022-09-03T19:46:59;6.03;;;1.80;;
53781;SDS011;39692;53.114;7.060;2022-09-03T19:49:58;5.63;;;1.73;;
53781;SDS011;39692;53.114;7.060;2022-09-03T19:52:54;3.67;;;1.83;;
53781;SDS011;39692;53.114;7.060;2022-09-03T19:55:45;4.32;;;1.95;;
53781;SDS011;39692;53.114;7.060;2022-09-03T19:58:41;4.10;;;1.67;;
53781;SDS011;39692;53.114;7.060;2022-09-03T20:01:34;5.30;;;1.73;;
53781;SDS011;39692;53.114;7.060;2022-09-03T20:04:22;3.50;;;1.65;;
53781;SDS011;39692;53.114;7.060;2022-09-03T20:07:13;4.15;;;2.03;;
53781;SDS011;39692;53.114;7.060;2022-09-03T20:09:58;5.13;;;1.52;;
53781;SDS011;39692;53.114;7.060;2022-09-03T20:15:38;3.75;;;1.60;;
53781;SDS011;39692;53.114;7.060;2022-09-03T20:38:19;4.50;;;1.63;;
53781;SDS011;39692;53.114;7.060;2022-09-03T20:52:04;4.28;;;1.67;;
53781;SDS011;39692;53.114;7.060;2022-09-03T20:55:01;4.30;;;1.70;;
53781;SDS011;39692;53.114;7.060;2022-09-03T20:58:25;4.65;;;1.88;;
53781;SDS011;39692;53.114;7.060;2022-09-03T21:14:53;4.22;;;2.00;;
53781;SDS011;39692;53.114;7.060;2022-09-03T21:20:34;6.70;;;1.98;;
53781;SDS011;39692;53.114;7.060;2022-09-03T21:23:08;2.92;;;1.77;;
53781;SDS011;39692;53.114;7.060;2022-09-03T21:25:49;4.93;;;1.58;;
53781;SDS011;39692;53.114;7.060;2022-09-03T21:30:58;3.75;;;1.80;;
53781;SDS011;39692;53.114;7.060;2022-09-03T21:33:28;3.10;;;1.77;;
53781;SDS011;39692;53.114;7.060;2022-09-03T21:35:59;3.70;;;1.90;;
53781;SDS011;39692;53.114;7.060;2022-09-03T21:38:36;4.93;;;1.95;;
53781;SDS011;39692;53.114;7.060;2022-09-03T21:41:09;2.88;;;1.70;;
53781;SDS011;39692;53.114;7.060;2022-09-03T21:43:59;3.55;;;1.90;;
53781;SDS011;39692;53.114;7.060;2022-09-03T21:46:35;5.68;;;2.10;;
53781;SDS011;39692;53.114;7.060;2022-09-03T21:49:16;3.60;;;2.50;;
53781;SDS011;39692;53.114;7.060;2022-09-03T21:51:59;3.45;;;1.98;;